Time;durP1;ratioP1;P1;durP2;ratioP2;P2;SDS_P1;SDS_P2;PMS_P1;PMS_P2;Temp;Humidity;BMP_temperature;BMP_pressure;BME280_temperature;BME280_humidity;BME280_pressure;Samples;Min_cycle;Max_cycle;Signal;HPM_P1;HPM_P2
2024/01/11 00:00:35;;;;;;;20.80;12.30;;;1.40;49.10;;;;;;5091597;28;20103;-73
2024/01/11 00:03:01;;;;;;;21.50;11.30;;;1.30;49.20;;;;;;5093523;28;20036;-73
2024/01/11 00:05:26;;;;;;;26.57;11.67;;;1.30;49.20;;;;;;5092904;28;20413;-73
2024/01/11 00:07:52;;;;;;;22.87;12.40;;;1.30;49.30;;;;;;5093002;28;20027;-73
2024/01/11 00:10:18;;;;;;;21.00;11.53;;;1.30;49.30;;;;;;5093096;28;20081;-73
2024/01/11 00:12:44;;;;;;;23.53;12.47;;;1.20;49.30;;;;;;5092716;28;20028;-73
2024/01/11 00:15:10;;;;;;;23.77;12.40;;;1.20;49.50;;;;;;5091991;28;20453;-73
2024/01/11 00:17:36;;;;;;;23.50;11.60;;;1.20;49.60;;;;;;5092475;28;20480;-72
2024/01/11 00:20:02;;;;;;;22.10;11.13;;;1.20;49.60;;;;;;5101719;28;20020;-73
2024/01/11 00:22:28;;;;;;;23.40;12.20;;;1.20;49.60;;;;;;5093225;28;20035;-73
2024/01/11 00:24:54;;;;;;;19.63;10.63;;;1.20;49.60;;;;;;5089229;28;20020;-73
2024/01/11 00:27:19;;;;;;;25.13;10.87;;;1.20;49.60;;;;;;5092985;28;20066;-73
2024/01/11 00:29:45;;;;;;;22.17;11.00;;;1.20;49.60;;;;;;5090678;28;20047;-73
2024/01/11 00:32:11;;;;;;;23.23;12.07;;;1.20;49.70;;;;;;5091952;28;20467;-73
2024/01/11 00:34:37;;;;;;;23.17;10.67;;;1.10;49.70;;;;;;5091925;28;20035;-73
2024/01/11 00:37:03;;;;;;;19.97;10.17;;;1.10;49.70;;;;;;5092861;28;20024;-73
2024/01/11 00:39:29;;;;;;;21.40;10.83;;;1.10;49.70;;;;;;5091190;28;20096;-73
2024/01/11 00:41:55;;;;;;;20.83;11.10;;;1.10;49.80;;;;;;5098031;28;20052;-73
2024/01/11 00:44:21;;;;;;;20.90;11.23;;;1.10;49.80;;;;;;5091986;28;20122;-73
2024/01/11 00:46:46;;;;;;;19.43;10.60;;;1.10;49.80;;;;;;5104074;28;20073;-73
2024/01/11 00:49:12;;;;;;;18.30;9.67;;;1.10;49.80;;;;;;5093625;28;20071;-73
2024/01/11 00:51:38;;;;;;;20.97;10.33;;;1.10;49.90;;;;;;5093061;28;20032;-73
2024/01/11 00:54:04;;;;;;;21.67;11.17;;;1.00;49.80;;;;;;5092735;28;20028;-73
2024/01/11 00:56:30;;;;;;;17.70;9.47;;;1.00;50.00;;;;;;5101773;28;20043;-73
2024/01/11 00:58:55;;;;;;;20.47;10.97;;;1.00;50.10;;;;;;5092796;28;20039;-74
2024/01/11 01:01:21;;;;;;;18.93;10.13;;;1.00;50.10;;;;;;5078021;28;20035;-73
2024/01/11 01:03:47;;;;;;;21.70;10.73;;;1.00;50.10;;;;;;5092957;28;20076;-73
2024/01/11 01:06:13;;;;;;;20.20;9.83;;;1.00;50.20;;;;;;5092613;28;20039;-73
2024/01/11 01:08:38;;;;;;;18.63;9.57;;;0.90;50.20;;;;;;5090885;28;20119;-73
2024/01/11 01:11:04;;;;;;;19.03;9.87;;;0.90;50.20;;;;;;5092322;28;20028;-73
2024/01/11 01:13:30;;;;;;;25.40;10.97;;;0.90;50.30;;;;;;5094900;28;20028;-73
2024/01/11 01:15:56;;;;;;;17.80;9.57;;;0.90;50.40;;;;;;5095585;28;20064;-73
2024/01/11 01:18:22;;;;;;;17.37;9.67;;;0.90;50.40;;;;;;5096091;28;20352;-73
2024/01/11 01:20:47;;;;;;;19.03;9.70;;;0.90;50.50;;;;;;5110876;28;20099;-73
2024/01/11 01:23:13;;;;;;;18.43;10.43;;;0.80;50.60;;;;;;5095942;28;20375;-73
2024/01/11 01:25:39;;;;;;;16.30;9.23;;;0.80;50.60;;;;;;5096420;28;20024;-73
2024/01/11 01:28:05;;;;;;;17.70;9.90;;;0.80;50.70;;;;;;5095021;28;20047;-73
2024/01/11 01:30:30;;;;;;;20.70;10.23;;;0.80;50.70;;;;;;5092971;28;20035;-73
2024/01/11 01:32:56;;;;;;;18.00;10.17;;;0.80;50.90;;;;;;5095268;28;20051;-73
2024/01/11 01:35:22;;;;;;;20.67;10.10;;;0.80;50.90;;;;;;5096772;28;20171;-73
2024/01/11 01:37:48;;;;;;;20.57;10.27;;;0.80;50.90;;;;;;5102393;27;20123;-73
2024/01/11 01:40:14;;;;;;;18.17;9.80;;;0.70;50.90;;;;;;5095620;28;20028;-73
2024/01/11 01:42:44;;;;;;;20.97;10.00;;;0.70;51.00;;;;;;5095763;28;20032;-73
2024/01/11 01:45:10;;;;;;;19.03;10.60;;;0.70;51.10;;;;;;5095324;28;20028;-73
2024/01/11 01:47:40;;;;;;;19.47;10.30;;;0.70;51.10;;;;;;5094125;28;20112;-73
2024/01/11 01:50:07;;;;;;;20.93;10.23;;;0.70;51.10;;;;;;5094808;28;20055;-73
2024/01/11 01:52:34;;;;;;;17.03;9.80;;;0.70;51.20;;;;;;5095281;28;20068;-73
2024/01/11 01:55:02;;;;;;;19.47;9.77;;;0.70;51.20;;;;;;5094781;28;20127;-73
2024/01/11 01:57:30;;;;;;;19.57;10.93;;;0.60;51.20;;;;;;5094640;28;20024;-73
2024/01/11 01:59:56;;;;;;;21.57;10.23;;;0.60;51.30;;;;;;5095614;28;20098;-73
2024/01/11 02:02:22;;;;;;;18.77;10.47;;;0.60;51.30;;;;;;5094206;28;20032;-73
2024/01/11 02:04:49;;;;;;;17.93;10.00;;;0.60;51.40;;;;;;5077316;28;20080;-73
2024/01/11 02:07:15;;;;;;;19.23;9.50;;;0.60;51.50;;;;;;5096621;28;20123;-73
2024/01/11 02:09:43;;;;;;;20.70;10.80;;;0.60;51.50;;;;;;5100147;27;20365;-72
2024/01/11 02:12:12;;;;;;;18.13;9.87;;;0.60;51.50;;;;;;5095487;28;20478;-73
2024/01/11 02:14:38;;;;;;;18.83;9.73;;;0.60;51.60;;;;;;5090260;28;20040;-73
2024/01/11 02:17:04;;;;;;;19.73;9.40;;;0.50;51.60;;;;;;5090422;28;20034;-73
2024/01/11 02:19:30;;;;;;;18.87;9.03;;;0.60;51.80;;;;;;5091925;28;20103;-73
2024/01/11 02:21:58;;;;;;;19.63;9.87;;;0.50;51.80;;;;;;5095270;28;20024;-73
2024/01/11 02:24:24;;;;;;;17.13;9.00;;;0.50;51.80;;;;;;5091342;28;20039;-73
2024/01/11 02:27:01;;;;;;;18.60;10.20;;;0.50;51.90;;;;;;5094642;28;20019;-73
2024/01/11 02:29:28;;;;;;;18.17;9.63;;;0.50;51.90;;;;;;5095579;28;20135;-73
2024/01/11 02:31:55;;;;;;;20.07;10.00;;;0.50;52.00;;;;;;5089740;28;20036;-73
2024/01/11 02:34:22;;;;;;;18.00;9.07;;;0.40;52.00;;;;;;5093515;28;20089;-73
2024/01/11 02:36:48;;;;;;;17.37;8.57;;;0.40;52.10;;;;;;5094045;28;20524;-72
2024/01/11 02:39:16;;;;;;;16.90;9.93;;;0.40;52.10;;;;;;5094867;28;20060;-73
2024/01/11 02:41:43;;;;;;;19.00;9.33;;;0.40;52.20;;;;;;5093700;28;20031;-73
2024/01/11 02:44:09;;;;;;;19.07;10.50;;;0.40;52.20;;;;;;5090871;28;20338;-73
2024/01/11 02:46:34;;;;;;;16.67;9.30;;;0.40;52.30;;;;;;5091663;28;20098;-73
2024/01/11 02:49:00;;;;;;;17.37;9.07;;;0.40;52.40;;;;;;5093221;28;20449;-72
2024/01/11 02:51:26;;;;;;;19.43;9.63;;;0.40;52.40;;;;;;5094959;28;20020;-73
2024/01/11 02:53:51;;;;;;;25.27;9.67;;;0.40;52.50;;;;;;5093267;28;20074;-72
2024/01/11 02:56:17;;;;;;;18.93;10.80;;;0.40;52.60;;;;;;5095483;28;20016;-73
2024/01/11 02:58:43;;;;;;;16.87;9.53;;;0.40;52.70;;;;;;5110241;28;20051;-73
2024/01/11 03:01:09;;;;;;;16.80;9.83;;;0.40;52.70;;;;;;5093032;28;20031;-72
2024/01/11 03:03:35;;;;;;;16.03;9.53;;;0.30;52.80;;;;;;5093984;28;20119;-73
2024/01/11 03:06:01;;;;;;;17.27;9.80;;;0.30;52.80;;;;;;5094869;28;20032;-72
2024/01/11 03:08:27;;;;;;;21.67;10.63;;;0.30;52.90;;;;;;5094078;28;20074;-72
2024/01/11 03:10:52;;;;;;;17.27;10.13;;;0.30;53.10;;;;;;5102370;28;20422;-73
2024/01/11 03:13:18;;;;;;;20.43;9.90;;;0.20;53.10;;;;;;5102301;28;20036;-73
2024/01/11 03:15:44;;;;;;;17.63;10.13;;;0.20;53.20;;;;;;5093879;28;20058;-73
2024/01/11 03:18:10;;;;;;;19.37;10.33;;;0.20;53.30;;;;;;5096184;28;20027;-73
2024/01/11 03:20:35;;;;;;;19.67;10.07;;;0.20;53.40;;;;;;5093105;28;20101;-72
2024/01/11 03:23:01;;;;;;;18.83;9.93;;;0.10;53.40;;;;;;5094414;28;20028;-73
2024/01/11 03:25:28;;;;;;;18.00;10.30;;;0.10;53.40;;;;;;5093034;28;20036;-73
2024/01/11 03:27:54;;;;;;;21.17;10.30;;;0.10;53.40;;;;;;5090409;28;20110;-72
2024/01/11 03:30:20;;;;;;;18.93;9.70;;;0.20;53.50;;;;;;5092804;28;20181;-72
2024/01/11 03:32:46;;;;;;;20.70;11.27;;;0.20;53.50;;;;;;5092854;28;20413;-73
2024/01/11 03:35:11;;;;;;;17.03;9.37;;;0.20;53.50;;;;;;5090723;28;20163;-72
2024/01/11 03:37:37;;;;;;;17.93;9.63;;;0.20;53.50;;;;;;5093828;28;20023;-72
2024/01/11 03:40:04;;;;;;;19.63;10.20;;;0.20;53.50;;;;;;5092477;28;20070;-72
2024/01/11 03:42:30;;;;;;;19.03;10.00;;;0.20;53.50;;;;;;5094379;28;20318;-72
2024/01/11 03:44:55;;;;;;;20.73;10.30;;;0.20;53.60;;;;;;5091737;28;20093;-72
2024/01/11 03:47:21;;;;;;;19.47;9.60;;;0.10;53.60;;;;;;5094734;28;20110;-72
2024/01/11 03:49:47;;;;;;;21.43;10.53;;;0.10;53.70;;;;;;5093531;28;20415;-72
2024/01/11 03:52:13;;;;;;;21.87;10.30;;;0.10;53.80;;;;;;5093466;28;20042;-72
2024/01/11 03:54:39;;;;;;;18.03;9.77;;;0.10;53.80;;;;;;5093632;28;20123;-72
2024/01/11 03:57:05;;;;;;;21.43;10.90;;;0.10;53.90;;;;;;5092302;28;20043;-72
2024/01/11 03:59:31;;;;;;;20.90;11.17;;;0.10;54.00;;;;;;5093701;28;20020;-72
2024/01/11 04:01:58;;;;;;;20.97;10.63;;;0.10;54.10;;;;;;5092219;28;20352;-72
2024/01/11 04:04:23;;;;;;;21.27;10.13;;;0.10;54.00;;;;;;5093727;28;20024;-72
2024/01/11 04:06:49;;;;;;;18.43;9.97;;;0.10;54.10;;;;;;5094553;28;20029;-72
2024/01/11 04:09:15;;;;;;;21.37;10.77;;;0.10;54.10;;;;;;5091464;28;20032;-73
2024/01/11 04:11:41;;;;;;;21.13;10.17;;;0.10;54.10;;;;;;5091952;28;20038;-72
2024/01/11 04:14:07;;;;;;;20.43;10.33;;;0.10;54.20;;;;;;5092407;28;20046;-72
2024/01/11 04:16:32;;;;;;;20.93;10.70;;;0.00;54.20;;;;;;5092110;28;20031;-72
2024/01/11 04:18:59;;;;;;;19.03;9.77;;;0.00;54.30;;;;;;5091911;28;20082;-72
2024/01/11 04:21:30;;;;;;;23.37;10.97;;;0.00;54.40;;;;;;5093007;28;20024;-72
2024/01/11 04:23:56;;;;;;;19.60;10.50;;;0.00;54.40;;;;;;5090341;28;20028;-72
2024/01/11 04:26:22;;;;;;;20.60;9.77;;;0.00;54.50;;;;;;5091908;28;20097;-72
2024/01/11 04:28:49;;;;;;;23.37;11.23;;;0.00;54.60;;;;;;5093051;28;20035;-72
2024/01/11 04:31:18;;;;;;;17.90;9.83;;;0.00;54.60;;;;;;5092910;28;20039;-72
2024/01/11 04:33:45;;;;;;;19.73;10.50;;;0.00;54.70;;;;;;5090081;28;20028;-72
2024/01/11 04:36:11;;;;;;;19.87;10.10;;;0.00;54.70;;;;;;5093222;28;20039;-72
2024/01/11 04:38:37;;;;;;;20.13;10.60;;;0.00;54.70;;;;;;5103027;28;20039;-72
2024/01/11 04:41:13;;;;;;;20.40;10.67;;;0.00;54.80;;;;;;5092788;28;20059;-72
2024/01/11 04:43:40;;;;;;;19.07;9.57;;;0.00;54.90;;;;;;5092435;28;20032;-72
2024/01/11 04:46:13;;;;;;;19.43;9.80;;;-0.10;54.90;;;;;;5091162;28;20113;-72
2024/01/11 04:48:38;;;;;;;20.63;9.63;;;-0.10;55.00;;;;;;5095578;28;20325;-72
2024/01/11 04:51:04;;;;;;;19.87;10.73;;;-0.10;55.00;;;;;;5095814;28;20093;-72
2024/01/11 04:53:30;;;;;;;19.70;10.07;;;-0.10;55.10;;;;;;5097040;28;20024;-72
2024/01/11 04:55:56;;;;;;;18.47;10.23;;;-0.10;55.20;;;;;;5097183;28;20077;-72
2024/01/11 04:58:21;;;;;;;18.87;9.87;;;-0.20;55.20;;;;;;5095410;28;20024;-72
2024/01/11 05:00:47;;;;;;;21.60;11.40;;;-0.20;55.30;;;;;;5096723;28;20070;-72
2024/01/11 05:03:13;;;;;;;22.13;11.93;;;-0.20;55.30;;;;;;5083415;28;20070;-72
2024/01/11 05:05:38;;;;;;;23.10;11.70;;;-0.20;55.50;;;;;;5096830;28;20031;-72
2024/01/11 05:08:04;;;;;;;22.77;11.10;;;-0.20;55.60;;;;;;5094565;28;20028;-72
2024/01/11 05:10:30;;;;;;;20.03;11.17;;;-0.20;55.60;;;;;;5094664;28;20020;-72
2024/01/11 05:12:56;;;;;;;22.83;12.27;;;-0.20;55.70;;;;;;5097313;28;20487;-72
2024/01/11 05:15:21;;;;;;;20.20;10.37;;;-0.20;55.70;;;;;;5096223;28;20032;-72
2024/01/11 05:17:47;;;;;;;22.17;11.67;;;-0.20;55.70;;;;;;5096485;28;20077;-72
2024/01/11 05:20:13;;;;;;;20.10;10.00;;;-0.20;55.80;;;;;;5095087;28;20353;-72
2024/01/11 05:22:38;;;;;;;23.13;12.20;;;-0.20;55.70;;;;;;5092519;28;20039;-72
2024/01/11 05:25:05;;;;;;;24.10;11.87;;;-0.20;55.80;;;;;;5091665;28;20028;-72
2024/01/11 05:27:30;;;;;;;22.00;12.17;;;-0.30;55.80;;;;;;5094481;28;20020;-72
2024/01/11 05:29:56;;;;;;;20.10;12.10;;;-0.20;56.00;;;;;;5096169;28;20341;-72
2024/01/11 05:32:22;;;;;;;26.87;12.50;;;-0.30;55.90;;;;;;5096003;28;20038;-72
2024/01/11 05:34:48;;;;;;;23.73;12.40;;;-0.30;56.00;;;;;;5096703;28;20081;-72
2024/01/11 05:37:13;;;;;;;20.33;11.13;;;-0.30;56.30;;;;;;5075156;28;20416;-72
2024/01/11 05:39:39;;;;;;;21.13;11.67;;;-0.30;56.10;;;;;;5084667;28;20454;-72
2024/01/11 05:42:05;;;;;;;22.73;11.40;;;-0.30;56.20;;;;;;5082319;28;20373;-72
2024/01/11 05:44:32;;;;;;;24.03;11.30;;;-0.30;56.20;;;;;;5081385;28;20024;-72
2024/01/11 05:46:58;;;;;;;21.43;11.40;;;-0.30;56.30;;;;;;5074936;28;20063;-72
2024/01/11 05:49:23;;;;;;;21.43;12.33;;;-0.30;56.30;;;;;;5081689;28;20044;-72
2024/01/11 05:51:49;;;;;;;27.70;13.93;;;-0.40;56.40;;;;;;5078596;28;20021;-72
2024/01/11 05:54:15;;;;;;;22.13;11.67;;;-0.30;56.50;;;;;;5078417;28;20029;-72
2024/01/11 05:56:41;;;;;;;23.57;12.17;;;-0.30;56.50;;;;;;5078842;28;20468;-72
2024/01/11 05:59:06;;;;;;;23.57;13.00;;;-0.40;56.50;;;;;;5075901;28;20417;-72
2024/01/11 06:01:32;;;;;;;24.37;13.03;;;-0.40;56.60;;;;;;5078843;28;20067;-72
2024/01/11 06:03:58;;;;;;;25.87;13.53;;;-0.40;56.70;;;;;;5076903;28;20349;-72
2024/01/11 06:06:24;;;;;;;23.80;12.87;;;-0.40;56.90;;;;;;5081305;28;20021;-72
2024/01/11 06:08:50;;;;;;;23.97;12.93;;;-0.40;56.90;;;;;;5082902;28;20021;-72
2024/01/11 06:11:18;;;;;;;23.53;12.53;;;-0.40;56.90;;;;;;5087953;28;20027;-67
2024/01/11 06:13:43;;;;;;;24.97;11.37;;;-0.40;57.10;;;;;;5081689;28;20040;-69
2024/01/11 06:16:09;;;;;;;24.67;13.10;;;-0.50;57.10;;;;;;5075162;28;20017;-69
2024/01/11 06:18:36;;;;;;;23.97;13.37;;;-0.50;57.20;;;;;;5079781;28;20532;-68
2024/01/11 06:21:01;;;;;;;23.43;12.07;;;-0.50;57.30;;;;;;5076745;28;20018;-69
2024/01/11 06:23:27;;;;;;;21.07;11.60;;;-0.50;57.30;;;;;;5077081;28;20023;-66
2024/01/11 06:25:53;;;;;;;22.70;12.73;;;-0.50;57.40;;;;;;5095190;28;20465;-68
2024/01/11 06:28:18;;;;;;;25.47;13.50;;;-0.50;57.40;;;;;;5082783;28;20020;-68
2024/01/11 06:30:44;;;;;;;25.80;12.90;;;-0.50;57.40;;;;;;5092802;28;20036;-72
2024/01/11 06:33:10;;;;;;;27.27;14.00;;;-0.50;57.40;;;;;;5094156;28;20023;-72
2024/01/11 06:35:35;;;;;;;25.73;14.17;;;-0.50;57.40;;;;;;5094934;28;20097;-71
2024/01/11 06:38:01;;;;;;;27.20;14.37;;;-0.50;57.40;;;;;;5085613;28;20020;-72
2024/01/11 06:40:27;;;;;;;26.00;13.93;;;-0.50;57.50;;;;;;5095089;28;20024;-72
2024/01/11 06:42:53;;;;;;;24.77;13.00;;;-0.50;57.50;;;;;;5094731;28;20089;-72
2024/01/11 06:45:18;;;;;;;25.53;14.43;;;-0.50;57.50;;;;;;5093901;28;20081;-71
2024/01/11 06:47:46;;;;;;;26.83;14.43;;;-0.50;57.50;;;;;;5095561;28;20031;-74
2024/01/11 06:50:15;;;;;;;28.00;14.87;;;-0.50;57.50;;;;;;5094008;28;20062;-71
2024/01/11 06:52:40;;;;;;;25.80;12.83;;;-0.50;57.60;;;;;;5106751;27;20032;-71
2024/01/11 06:55:07;;;;;;;26.90;13.63;;;-0.50;57.60;;;;;;5095730;28;20134;-71
2024/01/11 06:57:32;;;;;;;24.07;13.30;;;-0.50;57.60;;;;;;5096081;28;20030;-71
2024/01/11 06:59:58;;;;;;;24.67;14.57;;;-0.50;57.60;;;;;;5095942;28;20020;-71
2024/01/11 07:02:24;;;;;;;24.53;13.43;;;-0.50;57.70;;;;;;5094956;28;20437;-71
2024/01/11 07:04:50;;;;;;;24.80;13.37;;;-0.50;57.60;;;;;;5093662;28;20616;-71
2024/01/11 07:07:15;;;;;;;24.10;13.37;;;-0.50;57.60;;;;;;5093910;28;20035;-70
2024/01/11 07:09:41;;;;;;;26.30;13.67;;;-0.50;57.50;;;;;;5094955;28;20357;-70
2024/01/11 07:12:07;;;;;;;24.10;13.47;;;-0.50;57.50;;;;;;5106781;28;20497;-71
2024/01/11 07:14:33;;;;;;;25.80;14.50;;;-0.40;57.60;;;;;;5094081;28;20035;-71
2024/01/11 07:16:59;;;;;;;24.87;14.13;;;-0.50;57.60;;;;;;5093781;28;20058;-71
2024/01/11 07:19:24;;;;;;;25.10;13.30;;;-0.50;57.60;;;;;;5091668;28;20024;-71
2024/01/11 07:21:50;;;;;;;24.33;14.27;;;-0.50;57.70;;;;;;5094044;28;20028;-71
2024/01/11 07:24:18;;;;;;;24.57;14.30;;;-0.50;57.70;;;;;;5081489;28;20056;-71
2024/01/11 07:26:44;;;;;;;26.53;14.63;;;-0.50;57.70;;;;;;5087639;28;20016;-71
2024/01/11 07:29:10;;;;;;;27.13;15.43;;;-0.50;58.40;;;;;;5094364;28;20412;-71
2024/01/11 07:31:35;;;;;;;25.57;14.37;;;-0.50;57.90;;;;;;5093238;28;20032;-71
2024/01/11 07:34:01;;;;;;;27.60;14.70;;;-0.50;57.90;;;;;;5094495;28;20058;-71
2024/01/11 07:36:27;;;;;;;28.20;16.03;;;-0.50;58.00;;;;;;5093755;28;20028;-69
2024/01/11 07:38:53;;;;;;;28.83;16.03;;;-0.50;58.00;;;;;;5094283;28;20458;-67
2024/01/11 07:41:21;;;;;;;26.07;15.97;;;-0.50;58.10;;;;;;5094649;28;20028;-69
2024/01/11 07:43:46;;;;;;;28.23;15.43;;;-0.50;58.00;;;;;;5093405;28;20035;-68
2024/01/11 07:46:12;;;;;;;26.43;15.03;;;-0.50;58.00;;;;;;5094348;28;20031;-72
2024/01/11 07:48:38;;;;;;;28.90;15.20;;;-0.50;58.10;;;;;;5093715;28;20062;-70
2024/01/11 07:51:04;;;;;;;26.60;14.87;;;-0.50;58.10;;;;;;5094764;28;20055;-71
2024/01/11 07:53:31;;;;;;;26.23;15.00;;;-0.50;58.20;;;;;;5094623;28;20058;-70
2024/01/11 07:55:58;;;;;;;27.90;16.43;;;-0.50;58.10;;;;;;5093766;28;20028;-70
2024/01/11 07:58:23;;;;;;;27.67;14.97;;;-0.40;58.20;;;;;;5094052;28;20107;-70
2024/01/11 08:00:49;;;;;;;26.40;15.10;;;-0.40;58.10;;;;;;5094190;28;20465;-70
2024/01/11 08:03:15;;;;;;;27.83;14.83;;;-0.40;58.10;;;;;;5075530;28;20028;-69
2024/01/11 08:05:43;;;;;;;27.97;16.13;;;-0.50;58.00;;;;;;5099151;28;20044;-70
2024/01/11 08:08:08;;;;;;;27.30;14.53;;;-0.40;58.10;;;;;;5091153;28;20126;-70
2024/01/11 08:10:34;;;;;;;28.17;15.47;;;-0.40;58.10;;;;;;5092289;28;20107;-70
2024/01/11 08:13:00;;;;;;;27.63;16.07;;;-0.40;58.10;;;;;;5092185;28;20055;-71
2024/01/11 08:15:26;;;;;;;30.23;15.97;;;-0.40;58.00;;;;;;5096793;28;20036;-70
2024/01/11 08:17:52;;;;;;;31.77;17.10;;;-0.30;58.00;;;;;;5093372;28;20081;-71
2024/01/11 08:20:19;;;;;;;26.50;15.20;;;-0.30;58.00;;;;;;5094010;28;20387;-69
2024/01/11 08:22:46;;;;;;;27.87;15.00;;;-0.30;57.90;;;;;;5095119;28;20028;-70
2024/01/11 08:25:13;;;;;;;29.43;16.70;;;-0.20;57.90;;;;;;5094422;28;20043;-70
2024/01/11 08:27:39;;;;;;;26.87;15.20;;;-0.20;57.90;;;;;;5091534;28;20036;-70
2024/01/11 08:30:06;;;;;;;27.93;15.63;;;-0.20;57.80;;;;;;5092824;28;20043;-70
2024/01/11 08:32:38;;;;;;;28.70;16.53;;;-0.10;57.80;;;;;;5090349;28;20103;-70
2024/01/11 08:35:06;;;;;;;29.43;15.83;;;-0.10;57.70;;;;;;5092351;28;20463;-70
2024/01/11 08:37:32;;;;;;;29.30;15.53;;;0.00;57.60;;;;;;5091815;28;20051;-70
2024/01/11 08:39:58;;;;;;;31.20;16.17;;;0.10;57.50;;;;;;5092171;28;20027;-70
2024/01/11 08:42:23;;;;;;;27.80;16.40;;;0.20;57.30;;;;;;5092325;28;20031;-70
2024/01/11 08:44:49;;;;;;;31.60;17.33;;;0.30;57.20;;;;;;5099646;28;20078;-70
2024/01/11 08:47:15;;;;;;;31.87;17.27;;;0.40;57.10;;;;;;5092202;28;20120;-69
2024/01/11 08:49:41;;;;;;;28.93;17.17;;;0.40;57.00;;;;;;5078733;28;20040;-69
2024/01/11 08:52:08;;;;;;;30.27;17.67;;;0.50;56.90;;;;;;5094221;28;20035;-69
2024/01/11 08:54:34;;;;;;;31.80;17.90;;;0.60;56.80;;;;;;5089089;28;20038;-68
2024/01/11 08:57:00;;;;;;;30.73;16.60;;;0.70;56.70;;;;;;5092484;28;20103;-69
2024/01/11 08:59:26;;;;;;;29.30;16.93;;;0.80;56.60;;;;;;5092632;28;20400;-68
2024/01/11 09:01:52;;;;;;;34.07;19.27;;;0.90;56.50;;;;;;5092532;28;20052;-68
2024/01/11 09:04:18;;;;;;;31.30;17.77;;;1.00;56.30;;;;;;5093391;28;20065;-68
2024/01/11 09:06:44;;;;;;;29.33;17.37;;;1.10;56.20;;;;;;5093916;28;20072;-68
2024/01/11 09:09:13;;;;;;;32.17;18.13;;;1.20;56.00;;;;;;5093060;28;20024;-68
2024/01/11 09:11:42;;;;;;;31.57;16.87;;;1.30;55.80;;;;;;5099141;28;20028;-68
2024/01/11 09:14:10;;;;;;;33.13;18.77;;;1.40;55.70;;;;;;5100410;28;20032;-68
2024/01/11 09:16:37;;;;;;;31.47;17.17;;;1.40;55.50;;;;;;5078770;28;20105;-68
2024/01/11 09:19:02;;;;;;;34.17;19.37;;;1.50;55.40;;;;;;5110187;28;20040;-69
2024/01/11 09:21:28;;;;;;;35.73;19.37;;;1.50;55.20;;;;;;5092564;28;20051;-68
2024/01/11 09:23:55;;;;;;;29.50;17.17;;;1.60;55.20;;;;;;5093269;28;20044;-68
2024/01/11 09:26:22;;;;;;;31.60;17.20;;;1.70;55.00;;;;;;5110138;28;20041;-69
2024/01/11 09:28:48;;;;;;;28.47;16.57;;;1.70;54.80;;;;;;5093879;28;20036;-69
2024/01/11 09:31:14;;;;;;;32.43;17.93;;;1.80;54.70;;;;;;5093945;28;20039;-68
2024/01/11 09:33:42;;;;;;;32.43;17.53;;;1.90;54.70;;;;;;5108505;28;20028;-68
2024/01/11 09:36:08;;;;;;;32.73;18.27;;;1.90;54.60;;;;;;5104078;28;20043;-68
2024/01/11 09:38:34;;;;;;;30.97;17.27;;;1.90;54.50;;;;;;5096839;28;20028;-68
2024/01/11 09:41:13;;;;;;;29.07;17.20;;;2.00;54.60;;;;;;5096428;28;20043;-69
2024/01/11 09:43:41;;;;;;;29.60;16.10;;;2.00;54.50;;;;;;5095822;28;20123;-69
2024/01/11 09:46:07;;;;;;;33.53;17.23;;;2.00;54.50;;;;;;5082999;28;20024;-69
2024/01/11 09:48:34;;;;;;;29.57;17.30;;;2.00;54.50;;;;;;5096202;28;20055;-69
2024/01/11 09:51:09;;;;;;;32.77;17.40;;;2.00;54.50;;;;;;5096491;28;20431;-68
2024/01/11 09:53:38;;;;;;;28.70;16.33;;;2.00;54.50;;;;;;5096204;28;20344;-69
2024/01/11 09:56:08;;;;;;;32.20;16.73;;;2.10;54.50;;;;;;5104171;28;20032;-69
2024/01/11 09:58:38;;;;;;;32.07;18.33;;;2.10;54.50;;;;;;5093786;28;20032;-68
2024/01/11 10:01:09;;;;;;;29.20;15.83;;;2.00;54.50;;;;;;5097277;28;20035;-70
2024/01/11 10:03:35;;;;;;;28.70;16.90;;;2.00;54.50;;;;;;5092962;28;20020;-69
2024/01/11 10:06:02;;;;;;;31.43;16.23;;;2.00;54.50;;;;;;5096048;28;20475;-69
2024/01/11 10:08:29;;;;;;;25.57;15.37;;;2.10;54.60;;;;;;5095799;28;20035;-69
2024/01/11 10:10:55;;;;;;;28.60;15.03;;;2.10;54.50;;;;;;5095691;28;20431;-69
2024/01/11 10:13:30;;;;;;;26.80;14.93;;;2.30;54.40;;;;;;5107419;28;20043;-69
2024/01/11 10:16:15;;;;;;;29.60;15.87;;;2.50;54.20;;;;;;5082489;28;20035;-69
2024/01/11 10:18:41;;;;;;;28.00;15.07;;;2.70;53.90;;;;;;5112744;28;20334;-69
2024/01/11 10:21:09;;;;;;;31.27;17.27;;;2.90;53.60;;;;;;5096631;28;20452;-68
2024/01/11 10:23:36;;;;;;;30.10;16.33;;;3.10;53.40;;;;;;5086706;28;20050;-68
2024/01/11 10:26:02;;;;;;;31.60;17.07;;;3.30;53.20;;;;;;5099393;28;20028;-68
2024/01/11 10:28:28;;;;;;;28.63;16.47;;;3.40;53.00;;;;;;5095870;28;20435;-69
2024/01/11 10:30:55;;;;;;;29.33;16.73;;;3.60;52.90;;;;;;5095416;28;20330;-68
2024/01/11 10:33:21;;;;;;;28.87;15.03;;;3.70;52.80;;;;;;5112769;28;20028;-68
2024/01/11 10:35:51;;;;;;;31.87;16.93;;;3.80;52.80;;;;;;5094559;28;20036;-69
2024/01/11 10:38:17;;;;;;;26.73;14.33;;;3.90;52.80;;;;;;5094521;28;20020;-68
2024/01/11 10:40:44;;;;;;;24.57;14.57;;;4.00;52.80;;;;;;5098120;28;20035;-69
2024/01/11 10:43:11;;;;;;;25.43;14.50;;;4.10;52.90;;;;;;5112320;28;20045;-68
2024/01/11 10:45:41;;;;;;;23.50;13.47;;;4.20;53.00;;;;;;5096234;28;20380;-68
2024/01/11 10:48:16;;;;;;;22.07;12.73;;;4.20;53.10;;;;;;5111950;28;20431;-68
2024/01/11 10:50:49;;;;;;;23.40;12.50;;;4.30;53.30;;;;;;5099898;28;20026;-68
2024/01/11 10:53:25;;;;;;;23.50;12.10;;;4.30;53.50;;;;;;5099569;28;20034;-68
2024/01/11 10:55:51;;;;;;;20.33;10.53;;;4.30;53.70;;;;;;5096110;28;20032;-69
2024/01/11 10:58:20;;;;;;;18.47;9.47;;;4.40;53.90;;;;;;5096278;28;20036;-68
2024/01/11 11:00:48;;;;;;;21.80;10.47;;;4.40;54.00;;;;;;5095028;28;20105;-68
2024/01/11 11:03:15;;;;;;;19.10;9.43;;;4.50;54.20;;;;;;5095562;28;20039;-68
2024/01/11 11:05:42;;;;;;;17.77;8.53;;;4.40;54.40;;;;;;5098204;28;20028;-68
2024/01/11 11:08:10;;;;;;;18.33;9.10;;;4.20;54.90;;;;;;5094944;28;20032;-68
2024/01/11 11:10:38;;;;;;;17.30;9.03;;;4.00;55.60;;;;;;5095463;28;20039;-69
2024/01/11 11:13:06;;;;;;;17.43;7.90;;;3.70;56.10;;;;;;5095788;28;20060;-68
2024/01/11 11:15:33;;;;;;;16.97;8.40;;;3.50;57.20;;;;;;5097600;28;20052;-68
2024/01/11 11:18:00;;;;;;;17.80;8.40;;;3.30;57.20;;;;;;5094731;28;20024;-69
2024/01/11 11:20:27;;;;;;;17.10;8.13;;;3.20;57.80;;;;;;5095498;28;20024;-68
2024/01/11 11:23:13;;;;;;;19.73;8.90;;;3.00;58.20;;;;;;5089843;28;20017;-69
2024/01/11 11:25:42;;;;;;;16.60;7.33;;;2.90;58.80;;;;;;5091030;28;20036;-68
2024/01/11 11:28:08;;;;;;;18.97;8.43;;;2.80;59.00;;;;;;5094807;28;20395;-66
2024/01/11 11:30:41;;;;;;;19.40;8.83;;;2.80;59.30;;;;;;5094706;28;20064;-70
2024/01/11 11:33:21;;;;;;;19.20;8.47;;;2.70;59.60;;;;;;5093775;28;20028;-70
2024/01/11 11:35:48;;;;;;;21.40;10.13;;;2.70;60.00;;;;;;5092484;28;20144;-69
2024/01/11 11:38:22;;;;;;;21.07;10.07;;;2.70;60.20;;;;;;5092727;28;20020;-69
2024/01/11 11:40:50;;;;;;;18.40;9.10;;;2.70;60.60;;;;;;5097956;28;20029;-69
2024/01/11 11:43:19;;;;;;;19.87;9.27;;;2.70;60.80;;;;;;5094317;28;20034;-69
2024/01/11 11:45:49;;;;;;;20.37;9.90;;;2.70;60.90;;;;;;5094932;28;20024;-69
2024/01/11 11:48:48;;;;;;;20.83;10.65;;;2.80;61.20;;;;;;5093381;28;20126;-70
2024/01/11 11:51:21;;;;;;;22.07;9.47;;;2.80;61.50;;;;;;5056858;28;20040;-70
2024/01/11 11:53:48;;;;;;;21.17;10.07;;;2.70;61.60;;;;;;5098560;28;20348;-70
2024/01/11 11:56:17;;;;;;;20.57;10.03;;;2.80;61.70;;;;;;5093226;28;20471;-69
2024/01/11 11:58:43;;;;;;;19.70;9.23;;;2.80;61.90;;;;;;5093754;28;20028;-69
2024/01/11 12:01:09;;;;;;;18.80;9.47;;;2.80;62.10;;;;;;5093131;28;20419;-70
2024/01/11 12:03:41;;;;;;;21.17;9.43;;;2.80;62.30;;;;;;5092371;28;20028;-69
2024/01/11 12:06:08;;;;;;;20.15;7.97;;;2.80;62.70;;;;;;5091891;28;20400;-71
2024/01/11 12:08:37;;;;;;;21.37;9.47;;;2.80;62.80;;;;;;5075041;28;20373;-71
2024/01/11 12:11:05;;;;;;;18.50;9.33;;;2.80;63.60;;;;;;5093165;28;20067;-71
2024/01/11 12:13:32;;;;;;;20.07;9.33;;;2.80;63.00;;;;;;5093178;28;20097;-71
2024/01/11 12:15:58;;;;;;;18.60;8.77;;;2.90;63.30;;;;;;5101604;28;20454;-70
2024/01/11 12:18:24;;;;;;;21.93;9.80;;;2.90;63.30;;;;;;5079654;28;20107;-71
2024/01/11 12:20:52;;;;;;;20.50;10.10;;;2.90;63.50;;;;;;5092058;28;20028;-71
2024/01/11 12:23:19;;;;;;;20.33;9.80;;;2.90;63.70;;;;;;5100571;28;20043;-69
2024/01/11 12:25:45;;;;;;;21.23;10.43;;;3.00;63.80;;;;;;5075550;28;20024;-70
2024/01/11 12:28:11;;;;;;;21.37;9.73;;;3.00;63.90;;;;;;5092179;28;20024;-70
2024/01/11 12:30:37;;;;;;;19.07;9.27;;;3.00;64.00;;;;;;5094282;28;20101;-71
2024/01/11 12:33:04;;;;;;;18.13;9.30;;;3.00;64.10;;;;;;5093477;28;20028;-70